Time;durP1;ratioP1;P1;durP2;ratioP2;P2;SDS_P1;SDS_P2;PMS_P1;PMS_P2;Temp;Humidity;BMP_temperature;BMP_pressure;BME280_temperature;BME280_humidity;BME280_pressure;Samples;Min_cycle;Max_cycle;Signal;HPM_P1;HPM_P2
2021/01/28 00:00:57;;;;;;;51.00;28.60;;;;;;;;;;4995435;28;20027;-71
2021/01/28 00:03:23;;;;;;;54.03;30.40;;;;;;;;;;4995307;28;20599;-72
2021/01/28 00:05:49;;;;;;;56.83;31.00;;;;;;;;;;4995161;28;20546;-71
2021/01/28 00:08:15;;;;;;;54.37;28.23;;;;;;;;;;4995395;28;20125;-71
2021/01/28 00:10:41;;;;;;;51.97;28.23;;;;;;;;;;4995156;28;20026;-71
2021/01/28 00:13:08;;;;;;;45.50;24.67;;;;;;;;;;4995169;28;20019;-71
2021/01/28 00:15:34;;;;;;;50.63;25.30;;;;;;;;;;4995133;28;20026;-71
2021/01/28 00:18:00;;;;;;;49.30;27.30;;;;;;;;;;4994980;28;20101;-71
2021/01/28 00:20:29;;;;;;;49.73;29.90;;;;;;;;;;4994748;28;20502;-71
2021/01/28 00:22:55;;;;;;;63.27;32.90;;;;;;;;;;4994889;28;20023;-71
2021/01/28 00:25:22;;;;;;;63.63;32.43;;;;;;;;;;4995087;28;20022;-71
2021/01/28 00:27:48;;;;;;;55.77;30.80;;;;;;;;;;4995132;28;20022;-72
2021/01/28 00:30:16;;;;;;;55.43;29.70;;;;;;;;;;4994734;28;20073;-71
2021/01/28 00:32:42;;;;;;;62.20;28.70;;;;;;;;;;4994992;28;20444;-71
2021/01/28 00:35:09;;;;;;;52.67;27.23;;;;;;;;;;4994677;28;20022;-72
2021/01/28 00:37:36;;;;;;;52.03;27.63;;;;;;;;;;4994478;28;20030;-71
2021/01/28 00:40:02;;;;;;;61.83;26.00;;;;;;;;;;4994433;28;20026;-71
2021/01/28 00:42:28;;;;;;;50.07;25.90;;;;;;;;;;4994427;28;20026;-72
2021/01/28 00:44:56;;;;;;;42.27;24.00;;;;;;;;;;4994292;28;20467;-71
2021/01/28 00:47:22;;;;;;;41.07;21.63;;;;;;;;;;4994259;28;20068;-71
2021/01/28 00:49:48;;;;;;;31.43;17.20;;;;;;;;;;4994369;28;20117;-72
2021/01/28 00:52:14;;;;;;;32.47;16.27;;;;;;;;;;4994525;28;20061;-71
2021/01/28 00:54:40;;;;;;;31.87;16.47;;;;;;;;;;4994518;28;20054;-71
2021/01/28 00:57:07;;;;;;;24.40;14.60;;;;;;;;;;4994326;28;20645;-72
2021/01/28 00:59:33;;;;;;;24.93;13.80;;;;;;;;;;4994370;28;20054;-71
2021/01/28 01:01:59;;;;;;;44.77;13.93;;;;;;;;;;4994171;28;20066;-71
2021/01/28 01:04:25;;;;;;;27.27;13.30;;;;;;;;;;4994266;28;20513;-71
2021/01/28 01:06:56;;;;;;;35.87;14.00;;;;;;;;;;4994127;28;20105;-72
2021/01/28 01:09:23;;;;;;;39.20;14.47;;;;;;;;;;4993993;28;20104;-71
2021/01/28 01:11:49;;;;;;;33.33;14.90;;;;;;;;;;4993899;28;20026;-71
2021/01/28 01:14:15;;;;;;;28.07;13.60;;;;;;;;;;4994262;28;20383;-72
2021/01/28 01:16:41;;;;;;;31.23;13.83;;;;;;;;;;4994147;28;20039;-71
2021/01/28 01:19:08;;;;;;;37.17;14.27;;;;;;;;;;4993459;28;20046;-72
2021/01/28 01:21:34;;;;;;;30.13;14.43;;;;;;;;;;4993629;28;20510;-71
2021/01/28 01:24:00;;;;;;;26.50;14.07;;;;;;;;;;4993995;28;20027;-71
2021/01/28 01:26:26;;;;;;;26.57;14.13;;;;;;;;;;4993794;28;20033;-71
2021/01/28 01:28:52;;;;;;;25.27;13.33;;;;;;;;;;4993758;28;20042;-72
2021/01/28 01:31:18;;;;;;;28.60;13.20;;;;;;;;;;4994001;28;20034;-71
2021/01/28 01:33:44;;;;;;;27.70;12.77;;;;;;;;;;4993966;28;20022;-71
2021/01/28 01:36:10;;;;;;;52.80;14.40;;;;;;;;;;4993872;28;20093;-72
2021/01/28 01:38:36;;;;;;;43.57;13.23;;;;;;;;;;4993820;28;20387;-71
2021/01/28 01:41:02;;;;;;;38.70;13.67;;;;;;;;;;4993597;28;20057;-72
2021/01/28 01:43:28;;;;;;;25.00;13.20;;;;;;;;;;4993844;28;20022;-72
2021/01/28 01:45:56;;;;;;;22.87;12.07;;;;;;;;;;4994002;28;20022;-72
2021/01/28 01:48:26;;;;;;;24.90;13.53;;;;;;;;;;4993701;28;20050;-71
2021/01/28 01:51:05;;;;;;;24.33;11.70;;;;;;;;;;4993737;28;20038;-71
2021/01/28 01:53:41;;;;;;;20.20;12.07;;;;;;;;;;4993597;28;20018;-72
2021/01/28 01:56:26;;;;;;;23.47;12.63;;;;;;;;;;4993740;28;20050;-72
2021/01/28 01:59:00;;;;;;;20.50;12.10;;;;;;;;;;4991247;28;20034;-72
2021/01/28 02:01:28;;;;;;;25.93;12.80;;;;;;;;;;4991290;28;20035;-71
2021/01/28 02:03:54;;;;;;;20.73;12.17;;;;;;;;;;4990852;28;20026;-71
2021/01/28 02:06:32;;;;;;;21.50;12.27;;;;;;;;;;4993349;28;20153;-71
2021/01/28 02:08:58;;;;;;;22.97;12.17;;;;;;;;;;4993245;28;20380;-71
2021/01/28 02:11:25;;;;;;;24.13;12.40;;;;;;;;;;4993449;28;20069;-71
2021/01/28 02:13:52;;;;;;;26.07;10.97;;;;;;;;;;4992913;28;20030;-71
2021/01/28 02:16:20;;;;;;;19.80;11.23;;;;;;;;;;4993082;28;20083;-72
2021/01/28 02:18:47;;;;;;;32.57;12.33;;;;;;;;;;4993090;28;20088;-72
2021/01/28 02:21:19;;;;;;;21.57;11.97;;;;;;;;;;4993073;28;20043;-72
2021/01/28 02:24:04;;;;;;;23.27;14.07;;;;;;;;;;4993324;28;20475;-71
2021/01/28 02:26:31;;;;;;;24.77;13.77;;;;;;;;;;4993260;28;20041;-71
2021/01/28 02:28:58;;;;;;;24.57;14.33;;;;;;;;;;4993071;28;20391;-72
2021/01/28 02:31:24;;;;;;;25.37;14.90;;;;;;;;;;4995886;28;20130;-72
2021/01/28 02:33:52;;;;;;;25.60;14.60;;;;;;;;;;4996900;28;20475;-71
2021/01/28 02:36:18;;;;;;;24.53;14.10;;;;;;;;;;4996585;28;20105;-71
2021/01/28 02:38:44;;;;;;;24.00;14.13;;;;;;;;;;4996613;28;20480;-71
2021/01/28 02:41:11;;;;;;;22.53;13.83;;;;;;;;;;4996759;28;20022;-71
2021/01/28 02:43:37;;;;;;;21.67;12.77;;;;;;;;;;4996684;28;20023;-72
2021/01/28 02:46:12;;;;;;;24.93;13.37;;;;;;;;;;4996752;28;20081;-72
2021/01/28 02:48:38;;;;;;;23.37;12.20;;;;;;;;;;4996665;28;20029;-72
2021/01/28 02:51:05;;;;;;;25.20;14.10;;;;;;;;;;4996408;28;20541;-72
2021/01/28 02:53:35;;;;;;;21.13;12.27;;;;;;;;;;4995654;28;20130;-71
2021/01/28 02:56:01;;;;;;;38.53;12.80;;;;;;;;;;4996337;28;20030;-72
2021/01/28 02:58:27;;;;;;;20.40;11.90;;;;;;;;;;4996303;28;20057;-72
2021/01/28 03:00:53;;;;;;;24.50;11.67;;;;;;;;;;4996540;28;20078;-72
2021/01/28 03:03:19;;;;;;;23.80;10.07;;;;;;;;;;4996485;28;20498;-70
2021/01/28 03:05:45;;;;;;;16.07;9.77;;;;;;;;;;4996465;28;20494;-71
2021/01/28 03:08:11;;;;;;;22.33;10.80;;;;;;;;;;4996395;28;20430;-72
2021/01/28 03:10:37;;;;;;;22.30;9.77;;;;;;;;;;4996132;28;20085;-72
2021/01/28 03:13:03;;;;;;;23.30;10.27;;;;;;;;;;4996319;28;20113;-71
2021/01/28 03:15:30;;;;;;;21.73;9.93;;;;;;;;;;4996264;28;20039;-71
2021/01/28 03:17:56;;;;;;;34.80;10.97;;;;;;;;;;4995993;28;20050;-71
2021/01/28 03:20:23;;;;;;;22.27;9.43;;;;;;;;;;4995917;28;20414;-72
2021/01/28 03:22:50;;;;;;;27.80;9.50;;;;;;;;;;4996167;28;20047;-71
2021/01/28 03:25:16;;;;;;;23.40;11.30;;;;;;;;;;4995941;28;20471;-72
2021/01/28 03:27:42;;;;;;;26.10;11.00;;;;;;;;;;4995814;28;20030;-72
2021/01/28 03:30:10;;;;;;;25.17;11.50;;;;;;;;;;4995855;28;20049;-71
2021/01/28 03:32:36;;;;;;;21.87;11.53;;;;;;;;;;4996097;28;20026;-72
2021/01/28 03:35:02;;;;;;;38.83;10.67;;;;;;;;;;4995797;28;20030;-71
2021/01/28 03:37:28;;;;;;;23.40;10.00;;;;;;;;;;4996002;28;20029;-72
2021/01/28 03:39:54;;;;;;;22.93;10.73;;;;;;;;;;4995911;28;20500;-71
2021/01/28 03:42:20;;;;;;;33.40;11.30;;;;;;;;;;4995885;28;20066;-72
2021/01/28 03:44:46;;;;;;;24.60;10.93;;;;;;;;;;4995593;28;20026;-71
2021/01/28 03:47:12;;;;;;;17.77;9.53;;;;;;;;;;4995747;28;20027;-71
2021/01/28 03:49:38;;;;;;;22.80;9.53;;;;;;;;;;4995718;28;20046;-71
2021/01/28 03:52:04;;;;;;;17.07;10.47;;;;;;;;;;4995615;28;20030;-72
2021/01/28 03:54:30;;;;;;;17.70;10.13;;;;;;;;;;4995769;28;20480;-71
2021/01/28 03:56:56;;;;;;;18.37;10.43;;;;;;;;;;4995316;28;20037;-72
2021/01/28 03:59:23;;;;;;;23.97;10.53;;;;;;;;;;4995386;28;20040;-71
2021/01/28 04:01:49;;;;;;;25.30;11.03;;;;;;;;;;4995419;28;20108;-71
2021/01/28 04:04:15;;;;;;;21.47;13.37;;;;;;;;;;4995427;28;20030;-70
2021/01/28 04:06:41;;;;;;;21.20;11.80;;;;;;;;;;4995248;28;20034;-71
2021/01/28 04:09:07;;;;;;;16.07;9.90;;;;;;;;;;4995210;28;20041;-72
2021/01/28 04:11:33;;;;;;;20.90;10.30;;;;;;;;;;4994987;28;20070;-71
2021/01/28 04:13:59;;;;;;;15.93;9.80;;;;;;;;;;4995357;28;20053;-72
2021/01/28 04:16:25;;;;;;;17.73;9.87;;;;;;;;;;4995327;28;20100;-71
2021/01/28 04:18:51;;;;;;;22.80;8.90;;;;;;;;;;4995260;28;20435;-71
2021/01/28 04:21:17;;;;;;;20.23;8.47;;;;;;;;;;4994819;28;20419;-72
2021/01/28 04:23:43;;;;;;;18.43;8.93;;;;;;;;;;4994961;28;20539;-72
2021/01/28 04:26:09;;;;;;;21.37;9.53;;;;;;;;;;4995103;28;20060;-72
2021/01/28 04:28:35;;;;;;;16.67;8.80;;;;;;;;;;4995036;28;20434;-71
2021/01/28 04:31:01;;;;;;;17.07;9.57;;;;;;;;;;4994968;28;20035;-71
2021/01/28 04:33:27;;;;;;;18.43;8.80;;;;;;;;;;4994959;28;20030;-72
2021/01/28 04:35:53;;;;;;;16.90;9.50;;;;;;;;;;4994565;28;20023;-71
2021/01/28 04:38:19;;;;;;;18.93;9.23;;;;;;;;;;4994675;28;20094;-71
2021/01/28 04:40:47;;;;;;;15.93;8.77;;;;;;;;;;4994660;28;20018;-72
2021/01/28 04:43:16;;;;;;;15.07;9.27;;;;;;;;;;4994767;28;20029;-72
2021/01/28 04:45:42;;;;;;;19.83;9.40;;;;;;;;;;4994639;28;20402;-71
2021/01/28 04:48:10;;;;;;;22.47;9.40;;;;;;;;;;4994167;28;20466;-72
2021/01/28 04:50:37;;;;;;;17.27;10.27;;;;;;;;;;4994336;28;20038;-71
2021/01/28 04:53:08;;;;;;;19.83;10.27;;;;;;;;;;4993814;28;20153;-72
2021/01/28 04:55:36;;;;;;;22.60;11.37;;;;;;;;;;4994604;28;20029;-72
2021/01/28 04:58:03;;;;;;;20.90;11.20;;;;;;;;;;4994363;28;20498;-72
2021/01/28 05:00:29;;;;;;;15.90;9.67;;;;;;;;;;4992698;28;20428;-72
2021/01/28 05:02:59;;;;;;;21.53;10.73;;;;;;;;;;4994425;28;20117;-72
2021/01/28 05:05:25;;;;;;;22.03;11.83;;;;;;;;;;4994342;28;20061;-72
2021/01/28 05:07:51;;;;;;;24.07;11.80;;;;;;;;;;4994166;28;20034;-71
2021/01/28 05:10:18;;;;;;;19.57;11.63;;;;;;;;;;4994126;28;20073;-72
2021/01/28 05:12:53;;;;;;;21.43;11.67;;;;;;;;;;4993988;28;20027;-71
2021/01/28 05:15:21;;;;;;;19.33;11.87;;;;;;;;;;4994254;28;20495;-72
2021/01/28 05:17:58;;;;;;;23.63;12.50;;;;;;;;;;4994217;28;20026;-72
2021/01/28 05:20:25;;;;;;;20.47;12.40;;;;;;;;;;4994407;28;20113;-71
2021/01/28 05:23:03;;;;;;;22.80;12.90;;;;;;;;;;4994140;28;20069;-72
2021/01/28 05:25:29;;;;;;;21.63;12.27;;;;;;;;;;4993805;28;20395;-71
2021/01/28 05:27:55;;;;;;;20.30;11.87;;;;;;;;;;4993950;28;20525;-72
2021/01/28 05:30:39;;;;;;;20.53;11.57;;;;;;;;;;4993873;28;20038;-72
2021/01/28 05:33:05;;;;;;;;;;;;;;;;;;4994400;28;20026;-71
2021/01/28 05:35:32;;;;;;;19.87;11.17;;;;;;;;;;4993726;28;19912;-72
2021/01/28 05:38:12;;;;;;;18.50;11.10;;;;;;;;;;4993899;28;20438;-72
2021/01/28 05:40:39;;;;;;;19.63;11.13;;;;;;;;;;4993691;28;20030;-71
2021/01/28 05:43:23;;;;;;;20.90;11.10;;;;;;;;;;4993940;28;20534;-71
2021/01/28 05:45:50;;;;;;;18.43;10.40;;;;;;;;;;4993706;28;20467;-71
2021/01/28 05:48:30;;;;;;;26.33;11.50;;;;;;;;;;4993341;28;20034;-72
2021/01/28 05:51:04;;;;;;;22.10;10.53;;;;;;;;;;4993440;28;20074;-71
2021/01/28 05:53:30;;;;;;;16.33;9.70;;;;;;;;;;4993684;28;20033;-72
2021/01/28 05:55:56;;;;;;;24.23;11.13;;;;;;;;;;4993736;28;20031;-71
2021/01/28 05:58:41;;;;;;;23.43;11.17;;;;;;;;;;4993550;28;20541;-71
2021/01/28 06:01:12;;;;;;;19.07;10.17;;;;;;;;;;4993786;28;20026;-71
2021/01/28 06:03:41;;;;;;;20.93;11.13;;;;;;;;;;4993660;28;20499;-71
2021/01/28 06:06:07;;;;;;;22.73;10.93;;;;;;;;;;4997676;28;20376;-71
2021/01/28 06:08:45;;;;;;;16.57;9.47;;;;;;;;;;4997548;28;20057;-72
2021/01/28 06:11:14;;;;;;;16.90;9.67;;;;;;;;;;4997208;28;20517;-72
2021/01/28 06:13:56;;;;;;;17.43;9.20;;;;;;;;;;4997703;28;20468;-72
2021/01/28 06:16:37;;;;;;;21.93;10.37;;;;;;;;;;4997386;28;20037;-71
2021/01/28 06:19:15;;;;;;;16.47;9.33;;;;;;;;;;4997355;28;20018;-72
2021/01/28 06:21:51;;;;;;;17.40;9.27;;;;;;;;;;4997126;28;20058;-71
2021/01/28 06:24:37;;;;;;;21.93;9.67;;;;;;;;;;4997127;28;20026;-72
2021/01/28 06:27:03;;;;;;;19.47;9.70;;;;;;;;;;4997143;28;20046;-71
2021/01/28 06:29:32;;;;;;;16.97;9.57;;;;;;;;;;4997108;28;20034;-71
2021/01/28 06:32:21;;;;;;;16.93;9.40;;;;;;;;;;4997211;28;20475;-71
2021/01/28 06:34:54;;;;;;;19.83;9.87;;;;;;;;;;4997208;28;20109;-71
2021/01/28 06:37:35;;;;;;;19.58;10.38;;;;;;;;;;4997140;28;20030;-72
2021/01/28 06:40:02;;;;;;;20.30;10.27;;;;;;;;;;4996938;28;20546;-72
2021/01/28 06:42:46;;;;;;;27.00;10.33;;;;;;;;;;4996632;28;20041;-72
2021/01/28 06:45:16;;;;;;;21.33;11.07;;;;;;;;;;4997628;28;20045;-71
2021/01/28 06:47:46;;;;;;;19.47;10.97;;;;;;;;;;4997111;28;20025;-72
2021/01/28 06:50:25;;;;;;;28.53;12.10;;;;;;;;;;4996793;28;20045;-71
2021/01/28 06:52:51;;;;;;;20.43;11.70;;;;;;;;;;4996663;28;20026;-71
2021/01/28 06:55:32;;;;;;;22.97;11.90;;;;;;;;;;4996725;28;20026;-71
2021/01/28 06:58:08;;;;;;;25.37;12.13;;;;;;;;;;4996657;28;20034;-71
2021/01/28 07:00:55;;;;;;;25.47;13.10;;;;;;;;;;4996648;28;20114;-72
2021/01/28 07:03:53;;;;;;;25.50;12.80;;;;;;;;;;4996453;28;20030;-72
2021/01/28 07:06:28;;;;;;;28.87;13.60;;;;;;;;;;4973708;28;20042;-72
2021/01/28 07:09:06;;;;;;;29.50;12.63;;;;;;;;;;4996376;28;20058;-72
2021/01/28 07:11:32;;;;;;;27.03;13.97;;;;;;;;;;4996004;28;20064;-71
2021/01/28 07:13:59;;;;;;;25.33;13.40;;;;;;;;;;4996269;28;20035;-72
2021/01/28 07:16:25;;;;;;;22.70;13.63;;;;;;;;;;4995477;28;20477;-71
2021/01/28 07:18:55;;;;;;;25.37;13.30;;;;;;;;;;4996114;28;20037;-72
2021/01/28 07:21:27;;;;;;;25.17;14.37;;;;;;;;;;4994644;28;20050;-71
2021/01/28 07:24:20;;;;;;;25.48;12.77;;;;;;;;;;4994156;28;20073;-71
2021/01/28 07:26:48;;;;;;;25.90;12.53;;;;;;;;;;4993623;28;20043;-71
2021/01/28 07:29:33;;;;;;;28.00;13.57;;;;;;;;;;4995128;28;20026;-72
2021/01/28 07:31:59;;;;;;;23.67;13.13;;;;;;;;;;4993472;28;20040;-69
2021/01/28 07:34:25;;;;;;;24.67;14.23;;;;;;;;;;4992179;28;20484;-69
2021/01/28 07:36:52;;;;;;;31.07;15.13;;;;;;;;;;4992908;28;20092;-68
2021/01/28 07:39:31;;;;;;;27.07;14.77;;;;;;;;;;4994571;28;20054;-69
2021/01/28 07:42:08;;;;;;;31.60;13.97;;;;;;;;;;4995867;28;20050;-66
2021/01/28 07:44:34;;;;;;;33.10;13.70;;;;;;;;;;4995731;28;20035;-67
2021/01/28 07:47:00;;;;;;;26.00;13.60;;;;;;;;;;4995573;28;20026;-67
2021/01/28 07:49:28;;;;;;;23.87;13.53;;;;;;;;;;4995566;28;20030;-67
2021/01/28 07:52:03;;;;;;;22.00;12.90;;;;;;;;;;4995277;28;20038;-67
2021/01/28 07:54:29;;;;;;;25.67;12.57;;;;;;;;;;4995068;28;20030;-67
2021/01/28 07:57:07;;;;;;;27.63;12.77;;;;;;;;;;4995612;28;20037;-67
2021/01/28 07:59:36;;;;;;;28.77;12.43;;;;;;;;;;4995565;28;20030;-67
2021/01/28 08:02:05;;;;;;;21.60;10.73;;;;;;;;;;4994908;28;20061;-68
2021/01/28 08:04:41;;;;;;;23.57;12.50;;;;;;;;;;4995328;28;20114;-67
2021/01/28 08:07:09;;;;;;;21.60;12.10;;;;;;;;;;4993409;28;20041;-67
2021/01/28 08:09:55;;;;;;;22.70;11.03;;;;;;;;;;4992444;28;20618;-67
2021/01/28 08:12:26;;;;;;;19.17;11.10;;;;;;;;;;4994134;28;20375;-67
2021/01/28 08:14:53;;;;;;;25.20;11.83;;;;;;;;;;4995016;28;20033;-66
2021/01/28 08:17:22;;;;;;;33.97;12.57;;;;;;;;;;4995205;28;20021;-66
2021/01/28 08:19:48;;;;;;;24.20;10.93;;;;;;;;;;4995190;28;20050;-69
2021/01/28 08:22:16;;;;;;;18.73;10.73;;;;;;;;;;4994864;28;20057;-69
2021/01/28 08:24:46;;;;;;;29.30;11.23;;;;;;;;;;4995099;28;20062;-69
2021/01/28 08:27:14;;;;;;;26.90;11.43;;;;;;;;;;4994579;28;20084;-71
2021/01/28 08:29:40;;;;;;;17.13;10.67;;;;;;;;;;4994717;28;20036;-69
2021/01/28 08:32:17;;;;;;;20.80;11.50;;;;;;;;;;4995042;28;20038;-67
2021/01/28 08:34:43;;;;;;;23.17;12.90;;;;;;;;;;4994690;28;20541;-66
2021/01/28 08:37:15;;;;;;;28.23;14.57;;;;;;;;;;4994829;28;20032;-66
2021/01/28 08:39:41;;;;;;;26.97;13.93;;;;;;;;;;4994664;28;20046;-66
2021/01/28 08:42:07;;;;;;;22.23;13.57;;;;;;;;;;4994662;28;20456;-66
2021/01/28 08:44:34;;;;;;;21.47;13.40;;;;;;;;;;4994700;28;20113;-66
2021/01/28 08:47:23;;;;;;;21.30;12.90;;;;;;;;;;4994526;28;20034;-66
2021/01/28 08:50:15;;;;;;;25.03;12.00;;;;;;;;;;4991883;28;20479;-66
2021/01/28 08:52:43;;;;;;;21.70;11.57;;;;;;;;;;4993435;28;20066;-69
2021/01/28 08:55:19;;;;;;;21.57;11.40;;;;;;;;;;4994412;28;20022;-66
2021/01/28 08:57:45;;;;;;;22.07;11.00;;;;;;;;;;4994066;28;20026;-66
2021/01/28 09:00:12;;;;;;;22.33;11.93;;;;;;;;;;4994061;28;20098;-66
2021/01/28 09:02:41;;;;;;;20.30;11.63;;;;;;;;;;4993971;28;20072;-66
2021/01/28 09:05:16;;;;;;;24.47;12.17;;;;;;;;;;4994351;28;20097;-66
2021/01/28 09:07:45;;;;;;;24.60;11.60;;;;;;;;;;4994163;28;20034;-66
2021/01/28 09:10:11;;;;;;;21.80;11.77;;;;;;;;;;4993663;28;20414;-69
2021/01/28 09:12:38;;;;;;;18.37;11.10;;;;;;;;;;4993740;28;20113;-66
2021/01/28 09:15:10;;;;;;;20.50;10.90;;;;;;;;;;4993813;28;20045;-66
2021/01/28 09:17:37;;;;;;;21.95;10.32;;;;;;;;;;4994213;28;20084;-67
2021/01/28 09:20:05;;;;;;;19.57;10.83;;;;;;;;;;4993893;28;20442;-66
2021/01/28 09:22:32;;;;;;;32.77;13.53;;;;;;;;;;4993721;28;20375;-66
2021/01/28 09:24:59;;;;;;;26.37;14.30;;;;;;;;;;4994039;28;20023;-66
2021/01/28 09:27:33;;;;;;;25.53;13.83;;;;;;;;;;4994102;28;20022;-66
2021/01/28 09:30:17;;;;;;;22.97;14.27;;;;;;;;;;4994023;28;20415;-66
2021/01/28 09:32:43;;;;;;;19.10;12.10;;;;;;;;;;4993965;28;20035;-67
2021/01/28 09:35:14;;;;;;;18.33;11.07;;;;;;;;;;5006130;28;20052;-70
2021/01/28 09:37:41;;;;;;;18.30;10.80;;;;;;;;;;5012992;28;20037;-68
2021/01/28 09:40:30;;;;;;;19.70;10.40;;;;;;;;;;5011675;28;20026;-67
2021/01/28 09:43:15;;;;;;;19.40;10.70;;;;;;;;;;5012938;28;20080;-67
2021/01/28 09:45:41;;;;;;;18.77;10.33;;;;;;;;;;5013476;28;20018;-66
2021/01/28 09:48:07;;;;;;;17.43;10.93;;;;;;;;;;5013140;28;20084;-66
2021/01/28 09:50:33;;;;;;;17.07;10.43;;;;;;;;;;5012988;28;20042;-66
2021/01/28 09:52:59;;;;;;;19.07;11.70;;;;;;;;;;5013250;28;20080;-71
2021/01/28 09:55:30;;;;;;;16.73;10.37;;;;;;;;;;5013205;28;20464;-67
2021/01/28 09:57:56;;;;;;;22.43;10.83;;;;;;;;;;5013276;28;20030;-68
2021/01/28 10:00:23;;;;;;;18.50;10.00;;;;;;;;;;5013401;28;20026;-68
2021/01/28 10:02:56;;;;;;;15.73;9.37;;;;;;;;;;5013298;28;20021;-67
2021/01/28 10:05:22;;;;;;;;;;;;;;;;;;5013583;28;20057;-67
2021/01/28 10:07:48;;;;;;;14.13;8.43;;;;;;;;;;5012993;28;19936;-67
2021/01/28 10:10:18;;;;;;;16.33;10.33;;;;;;;;;;5013022;28;20387;-67
2021/01/28 10:12:44;;;;;;;13.93;9.80;;;;;;;;;;5013327;28;20029;-67
2021/01/28 10:15:11;;;;;;;16.60;9.17;;;;;;;;;;5013215;28;20552;-66
2021/01/28 10:17:37;;;;;;;14.50;8.30;;;;;;;;;;5012742;28;20029;-66
2021/01/28 10:20:05;;;;;;;17.23;8.60;;;;;;;;;;5013105;28;20038;-66
2021/01/28 10:22:33;;;;;;;14.70;8.33;;;;;;;;;;5013268;28;20371;-66
2021/01/28 10:24:59;;;;;;;17.50;9.10;;;;;;;;;;5012974;28;20073;-66
2021/01/28 10:27:25;;;;;;;14.73;9.07;;;;;;;;;;5012955;28;20506;-71
2021/01/28 10:29:51;;;;;;;16.87;9.70;;;;;;;;;;5013142;28;20471;-67
2021/01/28 10:32:17;;;;;;;18.67;9.43;;;;;;;;;;5012804;28;20487;-68
2021/01/28 10:34:44;;;;;;;16.50;9.10;;;;;;;;;;5012848;28;20026;-67
2021/01/28 10:37:10;;;;;;;17.07;9.73;;;;;;;;;;5012711;28;20387;-67
2021/01/28 10:39:36;;;;;;;19.80;10.57;;;;;;;;;;5012944;28;20562;-66
2021/01/28 10:42:03;;;;;;;17.47;10.43;;;;;;;;;;5012889;28;20030;-67
2021/01/28 10:44:29;;;;;;;19.73;10.43;;;;;;;;;;5012710;28;20027;-66
2021/01/28 10:46:56;;;;;;;18.23;11.63;;;;;;;;;;5013030;28;20529;-66
2021/01/28 10:49:22;;;;;;;22.13;12.90;;;;;;;;;;5012804;28;20076;-65
2021/01/28 10:51:49;;;;;;;24.00;13.10;;;;;;;;;;5014354;28;20057;-66
2021/01/28 10:54:15;;;;;;;29.03;12.73;;;;;;;;;;5016306;28;20061;-66
2021/01/28 10:56:42;;;;;;;26.80;15.93;;;;;;;;;;5016536;28;20121;-67
2021/01/28 10:59:08;;;;;;;29.07;16.87;;;;;;;;;;5016200;28;20029;-67
2021/01/28 11:01:34;;;;;;;24.97;12.97;;;;;;;;;;5016070;28;20387;-67
2021/01/28 11:04:00;;;;;;;20.50;11.90;;;;;;;;;;5016103;28;20021;-67
2021/01/28 11:06:26;;;;;;;23.80;11.50;;;;;;;;;;5016071;28;20030;-66
2021/01/28 11:08:52;;;;;;;17.50;12.27;;;;;;;;;;5015551;28;20093;-67
2021/01/28 11:11:19;;;;;;;25.87;11.67;;;;;;;;;;5015833;28;20057;-67
2021/01/28 11:13:47;;;;;;;20.73;11.80;;;;;;;;;;5016002;28;20018;-67
2021/01/28 11:16:13;;;;;;;20.70;11.97;;;;;;;;;;5015747;28;20030;-67
2021/01/28 11:18:39;;;;;;;18.03;12.20;;;;;;;;;;5015843;28;20482;-67
2021/01/28 11:21:05;;;;;;;27.00;13.97;;;;;;;;;;5015602;28;20056;-67
2021/01/28 11:23:31;;;;;;;22.17;13.03;;;;;;;;;;5015895;28;20037;-66
2021/01/28 11:25:58;;;;;;;19.57;11.83;;;;;;;;;;5015754;28;20068;-66
2021/01/28 11:28:24;;;;;;;19.20;11.87;;;;;;;;;;5015774;28;20025;-66
2021/01/28 11:30:50;;;;;;;21.40;10.63;;;;;;;;;;5015379;28;20462;-67
2021/01/28 11:33:16;;;;;;;21.00;10.60;;;;;;;;;;5015791;28;20030;-67
2021/01/28 11:35:42;;;;;;;16.47;10.23;;;;;;;;;;5015181;28;20023;-66
2021/01/28 11:38:08;;;;;;;14.80;10.23;;;;;;;;;;5015452;28;20028;-67
2021/01/28 11:40:35;;;;;;;18.20;10.03;;;;;;;;;;5015401;28;20026;-66
2021/01/28 11:43:01;;;;;;;17.93;9.93;;;;;;;;;;5015372;28;20475;-67
2021/01/28 11:45:32;;;;;;;18.00;9.53;;;;;;;;;;5015702;28;20030;-67
2021/01/28 11:47:58;;;;;;;17.00;8.97;;;;;;;;;;5014712;28;20026;-66
2021/01/28 11:50:24;;;;;;;17.17;9.83;;;;;;;;;;5014926;28;20042;-67
2021/01/28 11:52:50;;;;;;;15.27;9.23;;;;;;;;;;5014817;28;20080;-67
2021/01/28 11:55:18;;;;;;;12.47;8.00;;;;;;;;;;5012875;28;20030;-67
2021/01/28 11:57:44;;;;;;;18.23;8.27;;;;;;;;;;5012183;28;20022;-67
2021/01/28 12:00:11;;;;;;;11.50;7.87;;;;;;;;;;5013244;28;20533;-67
2021/01/28 12:02:37;;;;;;;14.10;7.50;;;;;;;;;;5013393;28;20419;-67
2021/01/28 12:05:03;;;;;;;9.80;7.37;;;;;;;;;;5013954;28;20034;-68
2021/01/28 12:07:29;;;;;;;11.80;7.60;;;;;;;;;;5013252;28;20029;-67
2021/01/28 12:09:55;;;;;;;11.30;7.37;;;;;;;;;;5013859;28;20038;-67
2021/01/28 12:12:21;;;;;;;11.30;7.60;;;;;;;;;;5014193;28;20148;-67
2021/01/28 12:14:47;;;;;;;10.27;7.20;;;;;;;;;;5013948;28;20026;-67
2021/01/28 12:17:13;;;;;;;11.23;7.37;;;;;;;;;;5014443;28;20092;-67
2021/01/28 12:19:40;;;;;;;12.23;7.30;;;;;;;;;;5013087;28;20051;-67
2021/01/28 12:22:06;;;;;;;11.60;7.27;;;;;;;;;;5014070;28;20037;-67
2021/01/28 12:24:33;;;;;;;13.17;7.37;;;;;;;;;;5013580;28;20026;-67
2021/01/28 12:26:59;;;;;;;10.87;6.60;;;;;;;;;;5014372;28;20030;-67
2021/01/28 12:29:25;;;;;;;11.60;7.20;;;;;;;;;;5013481;28;20258;-67
2021/01/28 12:31:52;;;;;;;11.40;7.13;;;;;;;;;;5014898;28;20029;-67
2021/01/28 12:34:18;;;;;;;11.43;7.87;;;;;;;;;;5012594;28;20030;-67
2021/01/28 12:36:45;;;;;;;10.23;6.87;;;;;;;;;;5012819;28;20030;-66
2021/01/28 12:39:11;;;;;;;10.77;6.97;;;;;;;;;;5013072;28;20038;-67
2021/01/28 12:41:37;;;;;;;16.67;7.37;;;;;;;;;;5013727;28;20030;-67
2021/01/28 12:44:03;;;;;;;11.67;7.83;;;;;;;;;;5013362;28;20096;-67
2021/01/28 12:46:29;;;;;;;13.10;7.53;;;;;;;;;;5014183;28;20370;-67
2021/01/28 12:48:56;;;;;;;16.90;8.07;;;;;;;;;;5013990;28;20447;-68
2021/01/28 12:51:22;;;;;;;13.07;8.20;;;;;;;;;;5014050;28;20494;-67
2021/01/28 12:53:48;;;;;;;14.33;9.23;;;;;;;;;;5013867;28;20389;-67
2021/01/28 12:56:14;;;;;;;14.93;9.87;;;;;;;;;;5013441;28;20033;-67
2021/01/28 12:58:40;;;;;;;16.50;8.67;;;;;;;;;;5013645;28;20028;-67
2021/01/28 13:01:06;;;;;;;13.17;8.07;;;;;;;;;;5012570;28;20109;-67
2021/01/28 13:03:32;;;;;;;9.97;7.73;;;;;;;;;;5012723;28;20046;-67
2021/01/28 13:05:58;;;;;;;13.60;7.63;;;;;;;;;;5013277;28;20068;-67
2021/01/28 13:08:24;;;;;;;15.87;9.30;;;;;;;;;;5013081;28;20033;-67
2021/01/28 13:10:51;;;;;;;14.70;9.00;;;;;;;;;;5012521;28;20065;-67
2021/01/28 13:13:17;;;;;;;13.33;8.30;;;;;;;;;;5012772;28;20101;-67
2021/01/28 13:15:43;;;;;;;12.50;8.13;;;;;;;;;;5011636;28;20030;-67
2021/01/28 13:18:12;;;;;;;10.60;7.37;;;;;;;;;;5010178;28;20641;-67
2021/01/28 13:20:38;;;;;;;13.73;7.80;;;;;;;;;;5009557;28;20049;-67
2021/01/28 13:23:04;;;;;;;11.93;7.67;;;;;;;;;;5011664;28;20041;-67
2021/01/28 13:25:30;;;;;;;12.07;8.17;;;;;;;;;;5013286;28;20037;-66
2021/01/28 13:27:56;;;;;;;12.37;8.27;;;;;;;;;;5013277;28;20037;-66
2021/01/28 13:30:23;;;;;;;16.10;8.97;;;;;;;;;;5013463;28;20054;-67
2021/01/28 13:32:49;;;;;;;12.43;8.90;;;;;;;;;;5013113;28;20390;-67
2021/01/28 13:35:18;;;;;;;20.07;9.97;;;;;;;;;;5013110;28;20030;-66
2021/01/28 13:37:44;;;;;;;12.80;9.00;;;;;;;;;;5013227;28;20032;-67
2021/01/28 13:40:12;;;;;;;12.77;9.40;;;;;;;;;;5013088;28;20049;-67
2021/01/28 13:42:38;;;;;;;12.60;8.80;;;;;;;;;;5013447;28;20030;-67
2021/01/28 13:45:05;;;;;;;14.57;8.30;;;;;;;;;;5013324;28;20026;-66
2021/01/28 13:47:31;;;;;;;17.37;8.90;;;;;;;;;;5012984;28;20022;-66
2021/01/28 13:49:57;;;;;;;13.20;9.00;;;;;;;;;;5011912;28;20549;-67
2021/01/28 13:52:23;;;;;;;14.60;9.10;;;;;;;;;;5010276;28;20057;-67
2021/01/28 13:54:49;;;;;;;14.43;9.53;;;;;;;;;;5011052;28;20058;-66
2021/01/28 13:57:15;;;;;;;15.53;8.17;;;;;;;;;;5013056;28;20425;-67
2021/01/28 13:59:41;;;;;;;13.00;8.50;;;;;;;;;;5013171;28;20029;-66
2021/01/28 14:02:07;;;;;;;20.23;11.47;;;;;;;;;;5013362;28;20057;-66
2021/01/28 14:04:34;;;;;;;13.43;8.90;;;;;;;;;;5013356;28;20026;-67
2021/01/28 14:07:00;;;;;;;10.80;7.40;;;;;;;;;;5013114;28;20065;-66
2021/01/28 14:09:27;;;;;;;13.17;8.23;;;;;;;;;;5013063;28;20082;-67
2021/01/28 14:11:53;;;;;;;11.33;6.97;;;;;;;;;;5013318;28;20040;-67
2021/01/28 14:14:19;;;;;;;9.37;6.77;;;;;;;;;;5013226;28;20022;-66
2021/01/28 14:16:47;;;;;;;8.93;6.77;;;;;;;;;;5013025;28;20029;-66
2021/01/28 14:19:13;;;;;;;9.20;6.23;;;;;;;;;;5012865;28;20022;-66
2021/01/28 14:21:39;;;;;;;14.10;8.00;;;;;;;;;;5012913;28;20042;-66
2021/01/28 14:24:05;;;;;;;13.03;7.87;;;;;;;;;;5010656;28;20026;-67
2021/01/28 14:26:31;;;;;;;13.40;7.97;;;;;;;;;;5012813;28;20057;-67
2021/01/28 14:28:57;;;;;;;12.97;8.10;;;;;;;;;;5014505;28;20022;-68